x

Gulf Of Maine - 78 Nm East Of Portsmouth, Nh (44005) Wave Buoy

2:50 - Sat 29th Nov 2014 All times are EST. -5 hours from GMT.

  • Sig Wave height 3.6ft
  • Peak Period 5s
  • Average Period 4s
  • Wind
    16mph, 25mph gusts
  • Sea Temp 49°f
  • Aire Temp 31°f
  • Sea Pressure 1021.7mb
  • Gulf Of Maine - 78 Nm East Of Portsmouth, Nh
  • Gulf Of Maine - 78 Nm East Of Portsmouth, Nh

More Historic Weather Station data

Upgrade to MSW Pro to gain access to the past 30 days of data for over 8000 Wavebouys and Weather Stations around the globe.

Join Pro

Comparision Forecast

View Surf forecast
   
sáb 11/29 2:50 3.5ft 5s 4s 16 25 mph 1021.7mb 49f 31f
1:50 3.5ft 5s 4s 18 25 mph 1021.2mb 49f 31f
12:50 4.5ft 5s 4s 20 25 mph 1020.5mb 49f 32f
vie 11/28 11:50 4ft 5s 4s 18 25 mph 1020.2mb 49f 32f
10:50  -   -   -  18 25 mph 1019.8mb 49f 33f
9:50  -   -   -  20 25 mph 1019.5mb 49f 33f
8:50 4.5ft 5s 4s 22 29 mph 1019.1mb 49f 34f
7:50 4ft 4s 4s 20 27 mph 1018.6mb 49f 35f
6:50 4ft 5s 4s 22 27 mph 1017.8mb 49f 35f
5:50 4.5ft 4s 4s 20 25 mph 1017.5mb 49f 35f
4:50 4.5ft 4s 4s 22 29 mph 1016.9mb 49f 34f
3:50 4.5ft 5s 4s 20 31 mph 1016.5mb 49f 33f
2:50 4ft 5s 4s 18 22 mph 1015.9mb 49f 33f
1:50 4.5ft 5s 5s 20 27 mph 1015.5mb 50f 32f
12:50 4.5ft 5s 4s 18 25 mph 1014.9mb 50f 32f
11:50 5ft 5s 5s 18 25 mph 1015.1mb 50f 32f
10:50 5ft 11s 5s 20 22 mph 1015.3mb 49f 33f
9:50 5ft 5s 5s 20 25 mph 1015.7mb 50f 33f
8:50 5.5ft 10s 5s 20 25 mph 1015.4mb 49f 33f
7:50 5.5ft 10s 5s 20 25 mph 1015.1mb 50f 34f
6:50 5ft 10s 5s 18 22 mph 1014.4mb 50f 34f
5:50 6ft 10s 6s 18 22 mph 1014.2mb 50f 35f
4:50 5ft 10s 6s 20 25 mph 1013.5mb 50f 36f
3:50 5ft 10s 5s 18 22 mph 1013.5mb 50f 37f
2:50 4.5ft 10s 5s 20 22 mph 1013.4mb 50f 37f
1:50 5ft 11s 6s 13 20 mph 1014.1mb 50f 37f
12:50 4.5ft 11s 5s 11 16 mph 1014.6mb 50f 37f
jue 11/27 11:50 4.5ft 11s 6s 13 18 mph 1014.7mb 50f 37f
10:50 5.5ft 11s 6s 16 18 mph 1014.8mb 50f 37f
9:50 6ft 11s 7s 11 18 mph 1015.4mb 50f 37f
8:50 7ft 12s 7s 13 18 mph 1015.6mb 50f 37f
7:50 7.5ft 11s 7s 18 22 mph 1015.3mb 50f 37f
6:50 8ft 11s 7s 18 22 mph 1014.9mb 50f 37f
5:50 8ft 10s 7s 16 20 mph 1014.6mb 50f 37f
4:50 9ft 10s 7s 18 20 mph 1013.8mb 50f 38f
3:50 8.5ft 11s 7s 18 25 mph 1013.3mb 50f 38f
2:50 9.5ft 11s 7s 18 25 mph 1012.6mb 50f 37f
1:50 10ft 12s 7s 18 25 mph 1012mb 50f 37f
12:50 10ft 9s 7s 16 20 mph 1012mb 50f 36f
11:50 10ft 9s 7s 18 25 mph 1011.5mb 50f 35f
10:50 11.5ft 9s 7s 18 25 mph 1011.1mb 50f 36f
9:50 12ft 10s 7s 22 27 mph 1010mb 50f 36f
8:50 13ft 10s 7s 25 31 mph 1008.8mb 50f 37f
7:50 15ft 8s 7s 29 36 mph 1006.7mb 50f 38f
6:50 15.5ft 9s 7s 34 40 mph 1004.9mb 50f 37f
5:50 15.5ft 10s 7s 36 43 mph 1003.8mb 50f 36f
4:50 16.5ft 10s 7s 38 45 mph 1001.4mb 50f 36f
3:50 17ft 10s 7s 38 49 mph 999.6mb 50f 38f
2:50 16ft 9s 7s 40 51 mph 998.9mb 50f 38f
1:50  -   -   -  40
mph
998.1mb - 39f
12:50 16ft 9s 7s 38 49 mph 998.5mb 50f 40f
mié 11/26 11:50 16ft 9s 7s 38 47 mph 998.7mb 50f 42f
10:50 16.5ft 8s 7s 38 45 mph 1000.4mb 50f 44f
9:50 14ft 8s 7s 38 47 mph 1002.3mb 50f 43f
8:50 12ft 7s 6s 38 47 mph 1004.6mb 50f 43f
7:50 11ft 7s 6s 38 45 mph 1006.4mb 50f 43f
6:50 9.5ft 7s 6s 36 45 mph 1009.8mb 50f 42f
5:50 8ft 6s 5s 34 40 mph 1011.7mb 50f 40f
4:50 7ft 6s 5s 34 40 mph 1013.7mb 50f 40f
3:50 6ft 5s 5s 29 34 mph 1017.4mb 50f 41f
2:50 5ft 5s 4s 27 34 mph 1016.5mb 50f 42f
1:50 4.5ft 9s 4s 25 29 mph 1017.9mb 50f 42f
12:50 4.5ft 10s 5s 20 22 mph 1018.5mb 50f 44f
11:50 4.5ft 9s 4s 18 25 mph 1019.6mb 50f 45f
10:50 4ft 9s 5s 20 27 mph 1019.8mb 50f 47f
9:50 4.5ft 10s 5s 16 18 mph 1022.2mb 50f 48f
8:50 4.5ft 9s 6s 11 13 mph 1021.6mb 50f 48f
7:50 5ft 10s 6s 13 18 mph 1021.2mb 50f 48f
6:50  -   -   -  16 20 mph 1020.7mb 51f 48f
5:50 5ft 9s 6s 18 20 mph 1021mb 51f 49f
4:50  -   -   -  18
mph
1020.9mb - 50f
3:50 5ft 9s 6s 16 18 mph 1020.1mb 51f 51f
2:50 5ft 9s 6s 11 13 mph 1020mb 51f 51f
1:50 5ft 10s 6s 13 16 mph 1019.5mb 51f 51f
12:50 5ft 9s 6s 13 18 mph 1018.8mb 51f 51f
mar 11/25 11:50 5ft 9s 5s 18 22 mph 1017.7mb 51f 51f
10:50 6ft 10s 5s 20 22 mph 1017.2mb 51f 52f
9:50 5.5ft 10s 6s 22 27 mph 1016.2mb 51f 52f
8:50 5.5ft 11s 6s 18 22 mph 1015.2mb 51f 53f
7:50  -   -   -  18 22 mph 1014.6mb 51f 53f
6:50 7ft 10s 7s 16 20 mph 1013.3mb 51f 54f
5:50 7.5ft 10s 7s 16 18 mph 1012.4mb 51f 54f
4:50 7.5ft 10s 7s 16 18 mph 1011.4mb 51f 54f
3:50 8ft 10s 7s 18 20 mph 1010.4mb 51f 55f
2:50 6.5ft 9s 6s 18 20 mph 1010.2mb 51f 54f
1:50 7ft 10s 6s 18 22 mph 1009.7mb 51f 54f
12:50 7ft 11s 6s 18 20 mph 1009.6mb 51f 54f
11:50 6.5ft 11s 6s 18 22 mph 1009.3mb 51f 54f
10:50 7ft 10s 6s 20 25 mph 1009.3mb 51f 54f
9:50 7.5ft 12s 6s 20 22 mph 1009.1mb 51f 54f
8:50 8ft 10s 6s 20 22 mph 1008.9mb 51f 53f